sensor_id;sensor_type;location;lat;lon;timestamp;pressure;altitude;pressure_sealevel;temperature;humidity
16331;BME280;8275;48.206;16.340;2022-12-18T00:00:11;100736.56;;;5.36;43.81
16331;BME280;8275;48.206;16.340;2022-12-18T00:02:40;100742.81;;;5.37;43.82
16331;BME280;8275;48.206;16.340;2022-12-18T00:05:10;100741.13;;;5.36;43.96
16331;BME280;8275;48.206;16.340;2022-12-18T00:07:38;100740.47;;;5.34;43.53
16331;BME280;8275;48.206;16.340;2022-12-18T00:10:08;100745.06;;;5.33;43.54
16331;BME280;8275;48.206;16.340;2022-12-18T00:12:36;100749.00;;;5.31;44.13
16331;BME280;8275;48.206;16.340;2022-12-18T00:15:05;100752.94;;;5.28;43.78
16331;BME280;8275;48.206;16.340;2022-12-18T00:17:35;100767.91;;;5.24;44.45
16331;BME280;8275;48.206;16.340;2022-12-18T00:20:04;100767.63;;;5.19;44.12
16331;BME280;8275;48.206;16.340;2022-12-18T00:22:35;100760.41;;;5.12;44.01
16331;BME280;8275;48.206;16.340;2022-12-18T00:25:04;100768.25;;;5.07;43.90
16331;BME280;8275;48.206;16.340;2022-12-18T00:27:32;100762.91;;;4.98;44.21
16331;BME280;8275;48.206;16.340;2022-12-18T00:30:01;100764.88;;;4.90;44.43
16331;BME280;8275;48.206;16.340;2022-12-18T00:32:30;100763.06;;;4.82;44.06
16331;BME280;8275;48.206;16.340;2022-12-18T00:34:58;100775.88;;;4.74;44.45
16331;BME280;8275;48.206;16.340;2022-12-18T00:37:26;100779.47;;;4.66;44.51
16331;BME280;8275;48.206;16.340;2022-12-18T00:39:56;100775.81;;;4.59;44.53
16331;BME280;8275;48.206;16.340;2022-12-18T00:42:25;100775.88;;;4.51;44.48
16331;BME280;8275;48.206;16.340;2022-12-18T00:45:11;100782.19;;;4.44;44.58
16331;BME280;8275;48.206;16.340;2022-12-18T00:47:39;100774.59;;;4.39;44.39
16331;BME280;8275;48.206;16.340;2022-12-18T00:50:09;100779.72;;;4.34;44.66
16331;BME280;8275;48.206;16.340;2022-12-18T00:52:37;100789.25;;;4.30;44.42
16331;BME280;8275;48.206;16.340;2022-12-18T00:55:11;100785.38;;;4.24;44.52
16331;BME280;8275;48.206;16.340;2022-12-18T00:57:40;100792.84;;;4.22;44.60
16331;BME280;8275;48.206;16.340;2022-12-18T01:00:13;100788.97;;;4.17;44.60
16331;BME280;8275;48.206;16.340;2022-12-18T01:02:42;100798.28;;;4.14;44.78
16331;BME280;8275;48.206;16.340;2022-12-18T01:05:12;100787.81;;;4.11;44.59
16331;BME280;8275;48.206;16.340;2022-12-18T01:07:41;100799.69;;;4.10;44.81
16331;BME280;8275;48.206;16.340;2022-12-18T01:10:12;100808.19;;;4.07;44.69
16331;BME280;8275;48.206;16.340;2022-12-18T01:12:41;100811.06;;;4.06;44.84
16331;BME280;8275;48.206;16.340;2022-12-18T01:15:11;100816.00;;;4.02;44.91
16331;BME280;8275;48.206;16.340;2022-12-18T01:17:40;100819.06;;;3.99;44.75
16331;BME280;8275;48.206;16.340;2022-12-18T01:20:11;100815.88;;;3.96;45.07
16331;BME280;8275;48.206;16.340;2022-12-18T01:22:40;100818.91;;;3.93;44.97
16331;BME280;8275;48.206;16.340;2022-12-18T01:25:10;100814.03;;;3.88;44.70
16331;BME280;8275;48.206;16.340;2022-12-18T01:27:38;100811.66;;;3.85;44.96
16331;BME280;8275;48.206;16.340;2022-12-18T01:30:08;100810.50;;;3.80;45.02
16331;BME280;8275;48.206;16.340;2022-12-18T01:32:37;100810.84;;;3.77;44.97
16331;BME280;8275;48.206;16.340;2022-12-18T01:35:07;100818.47;;;3.73;45.06
16331;BME280;8275;48.206;16.340;2022-12-18T01:37:36;100823.22;;;3.71;44.92
16331;BME280;8275;48.206;16.340;2022-12-18T01:40:06;100818.34;;;3.67;45.10
16331;BME280;8275;48.206;16.340;2022-12-18T01:42:36;100831.41;;;3.63;45.16
16331;BME280;8275;48.206;16.340;2022-12-18T01:45:25;100836.31;;;3.60;45.08
16331;BME280;8275;48.206;16.340;2022-12-18T01:47:56;100832.25;;;3.55;45.25
16331;BME280;8275;48.206;16.340;2022-12-18T01:50:31;100838.00;;;3.52;45.32
16331;BME280;8275;48.206;16.340;2022-12-18T01:53:06;100838.38;;;3.49;45.29
16331;BME280;8275;48.206;16.340;2022-12-18T01:55:38;100841.41;;;3.46;45.11
16331;BME280;8275;48.206;16.340;2022-12-18T01:58:10;100835.34;;;3.44;45.47
16331;BME280;8275;48.206;16.340;2022-12-18T02:00:39;100832.09;;;3.41;45.14
16331;BME280;8275;48.206;16.340;2022-12-18T02:03:07;100846.69;;;3.40;45.35
16331;BME280;8275;48.206;16.340;2022-12-18T02:05:44;100840.75;;;3.36;45.47
16331;BME280;8275;48.206;16.340;2022-12-18T02:08:19;100848.88;;;3.36;45.22
16331;BME280;8275;48.206;16.340;2022-12-18T02:10:57;100848.38;;;3.33;45.80
16331;BME280;8275;48.206;16.340;2022-12-18T02:13:38;100842.44;;;3.29;45.76
16331;BME280;8275;48.206;16.340;2022-12-18T02:16:18;100844.69;;;3.26;45.61
16331;BME280;8275;48.206;16.340;2022-12-18T02:18:53;100853.81;;;3.25;45.23
16331;BME280;8275;48.206;16.340;2022-12-18T02:21:33;100851.47;;;3.22;45.73
16331;BME280;8275;48.206;16.340;2022-12-18T02:24:21;100852.78;;;3.18;45.50
16331;BME280;8275;48.206;16.340;2022-12-18T02:26:56;100853.81;;;3.17;45.49
16331;BME280;8275;48.206;16.340;2022-12-18T02:29:29;100865.66;;;3.16;45.63
16331;BME280;8275;48.206;16.340;2022-12-18T02:32:04;100862.28;;;3.14;45.55
16331;BME280;8275;48.206;16.340;2022-12-18T02:34:38;100861.41;;;3.13;45.54
16331;BME280;8275;48.206;16.340;2022-12-18T02:37:11;100858.03;;;3.11;45.75
16331;BME280;8275;48.206;16.340;2022-12-18T02:39:43;100866.34;;;3.10;45.86
16331;BME280;8275;48.206;16.340;2022-12-18T02:42:14;100874.47;;;3.10;45.89
16331;BME280;8275;48.206;16.340;2022-12-18T02:44:44;100865.50;;;3.09;45.79
16331;BME280;8275;48.206;16.340;2022-12-18T02:47:16;100861.94;;;3.09;45.75
16331;BME280;8275;48.206;16.340;2022-12-18T02:49:57;100867.53;;;3.07;46.21
16331;BME280;8275;48.206;16.340;2022-12-18T02:52:35;100874.78;;;3.07;45.62
16331;BME280;8275;48.206;16.340;2022-12-18T02:55:18;100877.69;;;3.05;46.23
16331;BME280;8275;48.206;16.340;2022-12-18T02:57:56;100879.72;;;3.03;46.27
16331;BME280;8275;48.206;16.340;2022-12-18T03:00:31;100887.97;;;3.02;45.75
16331;BME280;8275;48.206;16.340;2022-12-18T03:03:07;100889.88;;;3.01;46.06
16331;BME280;8275;48.206;16.340;2022-12-18T03:05:44;100896.28;;;3.00;45.95
16331;BME280;8275;48.206;16.340;2022-12-18T03:08:18;100890.38;;;2.97;45.98
16331;BME280;8275;48.206;16.340;2022-12-18T03:10:53;100890.38;;;2.97;46.00
16331;BME280;8275;48.206;16.340;2022-12-18T03:13:28;100895.13;;;2.95;46.29
16331;BME280;8275;48.206;16.340;2022-12-18T03:16:00;100888.00;;;2.94;46.04
16331;BME280;8275;48.206;16.340;2022-12-18T03:18:35;100889.19;;;2.91;46.26
16331;BME280;8275;48.206;16.340;2022-12-18T03:21:06;100884.94;;;2.89;45.88
16331;BME280;8275;48.206;16.340;2022-12-18T03:23:42;100889.50;;;2.88;45.88
16331;BME280;8275;48.206;16.340;2022-12-18T03:26:17;100889.69;;;2.87;45.89
16331;BME280;8275;48.206;16.340;2022-12-18T03:28:54;100888.16;;;2.84;46.03
16331;BME280;8275;48.206;16.340;2022-12-18T03:31:27;100895.41;;;2.83;45.81
16331;BME280;8275;48.206;16.340;2022-12-18T03:33:59;100889.19;;;2.83;46.18
16331;BME280;8275;48.206;16.340;2022-12-18T03:36:32;100882.91;;;2.82;46.22
16331;BME280;8275;48.206;16.340;2022-12-18T03:39:00;100894.75;;;2.81;46.21
16331;BME280;8275;48.206;16.340;2022-12-18T03:41:33;100891.34;;;2.79;46.07
16331;BME280;8275;48.206;16.340;2022-12-18T03:44:12;100894.06;;;2.79;46.32
16331;BME280;8275;48.206;16.340;2022-12-18T03:46:47;100907.59;;;2.79;46.33
16331;BME280;8275;48.206;16.340;2022-12-18T03:49:29;100890.50;;;2.79;46.14
16331;BME280;8275;48.206;16.340;2022-12-18T03:52:03;100892.53;;;2.77;46.37
16331;BME280;8275;48.206;16.340;2022-12-18T03:54:34;100901.69;;;2.76;46.05
16331;BME280;8275;48.206;16.340;2022-12-18T03:57:08;100904.53;;;2.74;46.16
16331;BME280;8275;48.206;16.340;2022-12-18T03:59:39;100907.09;;;2.76;46.34
16331;BME280;8275;48.206;16.340;2022-12-18T04:02:09;100913.50;;;2.75;46.40
16331;BME280;8275;48.206;16.340;2022-12-18T04:04:39;100915.34;;;2.74;46.19
16331;BME280;8275;48.206;16.340;2022-12-18T04:07:08;100914.38;;;2.75;46.55
16331;BME280;8275;48.206;16.340;2022-12-18T04:09:39;100919.09;;;2.73;46.02
16331;BME280;8275;48.206;16.340;2022-12-18T04:12:09;100924.50;;;2.73;46.57
16331;BME280;8275;48.206;16.340;2022-12-18T04:14:39;100929.06;;;2.73;46.36
16331;BME280;8275;48.206;16.340;2022-12-18T04:17:07;100931.94;;;2.71;46.26
16331;BME280;8275;48.206;16.340;2022-12-18T04:19:36;100931.25;;;2.69;45.93
16331;BME280;8275;48.206;16.340;2022-12-18T04:22:04;100936.66;;;2.69;46.48
16331;BME280;8275;48.206;16.340;2022-12-18T04:24:33;100939.53;;;2.68;45.99
16331;BME280;8275;48.206;16.340;2022-12-18T04:27:01;100935.16;;;2.67;46.12
16331;BME280;8275;48.206;16.340;2022-12-18T04:29:30;100939.03;;;2.64;46.37
16331;BME280;8275;48.206;16.340;2022-12-18T04:32:00;100944.59;;;2.63;45.75
16331;BME280;8275;48.206;16.340;2022-12-18T04:34:28;100947.63;;;2.60;46.45
16331;BME280;8275;48.206;16.340;2022-12-18T04:36:57;100940.53;;;2.59;46.52
16331;BME280;8275;48.206;16.340;2022-12-18T04:39:25;100944.41;;;2.56;45.91
16331;BME280;8275;48.206;16.340;2022-12-18T04:41:54;100948.28;;;2.54;46.58
16331;BME280;8275;48.206;16.340;2022-12-18T04:44:23;100948.44;;;2.52;46.26
16331;BME280;8275;48.206;16.340;2022-12-18T04:46:51;100957.75;;;2.50;46.71
16331;BME280;8275;48.206;16.340;2022-12-18T04:49:21;100954.34;;;2.48;46.38
16331;BME280;8275;48.206;16.340;2022-12-18T04:51:50;100957.06;;;2.48;46.05
16331;BME280;8275;48.206;16.340;2022-12-18T04:54:20;100955.53;;;2.45;46.76
16331;BME280;8275;48.206;16.340;2022-12-18T04:56:48;100951.13;;;2.44;46.78
16331;BME280;8275;48.206;16.340;2022-12-18T04:59:17;100972.91;;;2.43;46.74
16331;BME280;8275;48.206;16.340;2022-12-18T05:01:45;100972.06;;;2.42;46.34
16331;BME280;8275;48.206;16.340;2022-12-18T05:04:14;100976.66;;;2.42;46.24
16331;BME280;8275;48.206;16.340;2022-12-18T05:06:44;100973.09;;;2.41;47.02
16331;BME280;8275;48.206;16.340;2022-12-18T05:09:13;100983.22;;;2.39;46.93
16331;BME280;8275;48.206;16.340;2022-12-18T05:11:42;100985.09;;;2.39;46.43
16331;BME280;8275;48.206;16.340;2022-12-18T05:14:12;100979.81;;;2.37;46.79
16331;BME280;8275;48.206;16.340;2022-12-18T05:16:40;100994.19;;;2.38;47.02
16331;BME280;8275;48.206;16.340;2022-12-18T05:19:10;100995.91;;;2.39;46.27
16331;BME280;8275;48.206;16.340;2022-12-18T05:21:39;100992.34;;;2.38;46.95
16331;BME280;8275;48.206;16.340;2022-12-18T05:24:08;100994.19;;;2.38;46.93
16331;BME280;8275;48.206;16.340;2022-12-18T05:26:37;100996.03;;;2.37;47.27
16331;BME280;8275;48.206;16.340;2022-12-18T05:29:05;100991.66;;;2.36;46.68
16331;BME280;8275;48.206;16.340;2022-12-18T05:31:33;100990.81;;;2.36;46.46
16331;BME280;8275;48.206;16.340;2022-12-18T05:34:06;100993.00;;;2.32;46.84
16331;BME280;8275;48.206;16.340;2022-12-18T05:36:34;100996.69;;;2.31;46.83
16331;BME280;8275;48.206;16.340;2022-12-18T05:39:03;101000.56;;;2.29;47.02
16331;BME280;8275;48.206;16.340;2022-12-18T05:41:33;100998.91;;;2.28;46.91
16331;BME280;8275;48.206;16.340;2022-12-18T05:44:01;101000.06;;;2.25;46.69
16331;BME280;8275;48.206;16.340;2022-12-18T05:46:31;101008.16;;;2.25;47.10
16331;BME280;8275;48.206;16.340;2022-12-18T05:49:00;101002.91;;;2.24;46.53
16331;BME280;8275;48.206;16.340;2022-12-18T05:51:29;101001.22;;;2.23;46.45
16331;BME280;8275;48.206;16.340;2022-12-18T05:53:58;100997.97;;;2.19;46.84
16331;BME280;8275;48.206;16.340;2022-12-18T05:56:26;101002.56;;;2.19;47.19
16331;BME280;8275;48.206;16.340;2022-12-18T05:58:56;101006.44;;;2.16;46.62
16331;BME280;8275;48.206;16.340;2022-12-18T06:01:26;101003.03;;;2.14;47.30
16331;BME280;8275;48.206;16.340;2022-12-18T06:03:55;101009.44;;;2.13;47.06
16331;BME280;8275;48.206;16.340;2022-12-18T06:06:26;101012.31;;;2.11;47.26
16331;BME280;8275;48.206;16.340;2022-12-18T06:08:56;101023.13;;;2.11;46.65
16331;BME280;8275;48.206;16.340;2022-12-18T06:11:26;101020.44;;;2.11;46.70
16331;BME280;8275;48.206;16.340;2022-12-18T06:13:57;101028.69;;;2.10;47.39
16331;BME280;8275;48.206;16.340;2022-12-18T06:16:27;101034.09;;;2.10;47.01
16331;BME280;8275;48.206;16.340;2022-12-18T06:18:57;101036.66;;;2.11;46.92
16331;BME280;8275;48.206;16.340;2022-12-18T06:21:26;101046.44;;;2.12;47.21
16331;BME280;8275;48.206;16.340;2022-12-18T06:23:55;101043.72;;;2.12;47.46
16331;BME280;8275;48.206;16.340;2022-12-18T06:26:24;101042.88;;;2.12;47.42
16331;BME280;8275;48.206;16.340;2022-12-18T06:28:56;101046.59;;;2.11;47.13
16331;BME280;8275;48.206;16.340;2022-12-18T06:31:25;101047.59;;;2.10;47.41
16331;BME280;8275;48.206;16.340;2022-12-18T06:33:53;101056.56;;;2.10;47.37
16331;BME280;8275;48.206;16.340;2022-12-18T06:36:22;101055.72;;;2.10;47.41
16331;BME280;8275;48.206;16.340;2022-12-18T06:38:50;101047.75;;;2.08;47.67
16331;BME280;8275;48.206;16.340;2022-12-18T06:41:21;101055.72;;;2.10;47.21
16331;BME280;8275;48.206;16.340;2022-12-18T06:43:50;101054.88;;;2.09;47.09
16331;BME280;8275;48.206;16.340;2022-12-18T06:46:26;101059.44;;;2.09;47.67
16331;BME280;8275;48.206;16.340;2022-12-18T06:48:55;101054.03;;;2.09;47.01
16331;BME280;8275;48.206;16.340;2022-12-18T06:51:26;101066.69;;;2.08;47.56
16331;BME280;8275;48.206;16.340;2022-12-18T06:53:54;101056.72;;;2.09;47.41
16331;BME280;8275;48.206;16.340;2022-12-18T06:56:23;101069.41;;;2.08;47.08
16331;BME280;8275;48.206;16.340;2022-12-18T06:58:51;101074.81;;;2.08;47.29
16331;BME280;8275;48.206;16.340;2022-12-18T07:01:20;101082.91;;;2.08;47.37
16331;BME280;8275;48.206;16.340;2022-12-18T07:03:54;101083.59;;;2.10;47.84
16331;BME280;8275;48.206;16.340;2022-12-18T07:06:25;101089.00;;;2.10;47.86
16331;BME280;8275;48.206;16.340;2022-12-18T07:08:54;101089.69;;;2.12;47.96
16331;BME280;8275;48.206;16.340;2022-12-18T07:11:23;101093.06;;;2.14;47.22
16331;BME280;8275;48.206;16.340;2022-12-18T07:13:52;101098.34;;;2.16;47.82
16331;BME280;8275;48.206;16.340;2022-12-18T07:16:22;101097.31;;;2.17;47.65
16331;BME280;8275;48.206;16.340;2022-12-18T07:18:54;101099.88;;;2.19;47.75
16331;BME280;8275;48.206;16.340;2022-12-18T07:21:24;101109.50;;;2.21;47.14
16331;BME280;8275;48.206;16.340;2022-12-18T07:23:52;101112.94;;;2.23;47.43
16331;BME280;8275;48.206;16.340;2022-12-18T07:26:22;101117.31;;;2.24;47.13
16331;BME280;8275;48.206;16.340;2022-12-18T07:28:50;101119.53;;;2.29;47.66
16331;BME280;8275;48.206;16.340;2022-12-18T07:31:20;101117.38;;;2.32;47.31
16331;BME280;8275;48.206;16.340;2022-12-18T07:33:50;101118.75;;;2.36;47.78
16331;BME280;8275;48.206;16.340;2022-12-18T07:36:24;101124.69;;;2.40;47.20
16331;BME280;8275;48.206;16.340;2022-12-18T07:38:52;101127.94;;;2.43;47.13
16331;BME280;8275;48.206;16.340;2022-12-18T07:41:21;101130.16;;;2.48;47.14
16331;BME280;8275;48.206;16.340;2022-12-18T07:43:49;101133.38;;;2.51;47.25
16331;BME280;8275;48.206;16.340;2022-12-18T07:46:19;101139.19;;;2.56;47.84
16331;BME280;8275;48.206;16.340;2022-12-18T07:48:48;101133.16;;;2.62;47.20
16331;BME280;8275;48.206;16.340;2022-12-18T07:51:18;101146.19;;;2.67;47.28
16331;BME280;8275;48.206;16.340;2022-12-18T07:53:47;101147.69;;;2.69;47.55
16331;BME280;8275;48.206;16.340;2022-12-18T07:56:19;101158.06;;;2.74;47.13
16331;BME280;8275;48.206;16.340;2022-12-18T07:58:54;101154.88;;;2.78;47.26
16331;BME280;8275;48.206;16.340;2022-12-18T08:01:23;101161.50;;;2.84;47.50
16331;BME280;8275;48.206;16.340;2022-12-18T08:03:52;101173.69;;;2.88;47.64
16331;BME280;8275;48.206;16.340;2022-12-18T08:06:21;101162.25;;;2.94;47.65
16331;BME280;8275;48.206;16.340;2022-12-18T08:08:52;101178.00;;;2.99;47.22
16331;BME280;8275;48.206;16.340;2022-12-18T08:11:21;101167.69;;;3.02;47.41
16331;BME280;8275;48.206;16.340;2022-12-18T08:13:50;101158.94;;;3.08;47.34
16331;BME280;8275;48.206;16.340;2022-12-18T08:16:20;101170.94;;;3.14;47.33
16331;BME280;8275;48.206;16.340;2022-12-18T08:18:48;101173.16;;;3.18;47.40
16331;BME280;8275;48.206;16.340;2022-12-18T08:21:21;101169.81;;;3.24;47.23
16331;BME280;8275;48.206;16.340;2022-12-18T08:23:51;101169.16;;;3.30;47.53
16331;BME280;8275;48.206;16.340;2022-12-18T08:26:21;101169.66;;;3.34;47.62
16331;BME280;8275;48.206;16.340;2022-12-18T08:28:50;101170.22;;;3.37;47.28
16331;BME280;8275;48.206;16.340;2022-12-18T08:31:19;101165.16;;;3.42;47.26
16331;BME280;8275;48.206;16.340;2022-12-18T08:33:50;101163.50;;;3.49;47.31
16331;BME280;8275;48.206;16.340;2022-12-18T08:36:22;101162.81;;;3.55;47.19
16331;BME280;8275;48.206;16.340;2022-12-18T08:38:52;101167.75;;;3.60;46.98
16331;BME280;8275;48.206;16.340;2022-12-18T08:41:21;101165.38;;;3.65;46.98
16331;BME280;8275;48.206;16.340;2022-12-18T08:43:49;101162.34;;;3.68;47.17
16331;BME280;8275;48.206;16.340;2022-12-18T08:46:37;101171.66;;;3.74;47.28
16331;BME280;8275;48.206;16.340;2022-12-18T08:49:07;101167.94;;;3.83;47.33
16331;BME280;8275;48.206;16.340;2022-12-18T08:51:38;101171.88;;;3.96;47.31
16331;BME280;8275;48.206;16.340;2022-12-18T08:54:07;101177.00;;;4.07;47.33
16331;BME280;8275;48.206;16.340;2022-12-18T08:56:35;101182.75;;;4.20;47.19
16331;BME280;8275;48.206;16.340;2022-12-18T08:59:04;101181.56;;;4.31;47.38
16331;BME280;8275;48.206;16.340;2022-12-18T09:01:32;101183.78;;;4.44;47.28
16331;BME280;8275;48.206;16.340;2022-12-18T09:04:01;101189.69;;;4.55;47.12
16331;BME280;8275;48.206;16.340;2022-12-18T09:06:30;101189.34;;;4.66;46.84
16331;BME280;8275;48.206;16.340;2022-12-18T09:09:00;101180.84;;;4.77;47.02
16331;BME280;8275;48.206;16.340;2022-12-18T09:11:30;101188.97;;;4.85;46.76
16331;BME280;8275;48.206;16.340;2022-12-18T09:14:00;101182.50;;;4.94;47.35
16331;BME280;8275;48.206;16.340;2022-12-18T09:16:31;101195.19;;;5.02;46.67
16331;BME280;8275;48.206;16.340;2022-12-18T09:19:04;101178.03;;;5.10;46.48
16331;BME280;8275;48.206;16.340;2022-12-18T09:21:34;101186.34;;;5.16;46.78
16331;BME280;8275;48.206;16.340;2022-12-18T09:24:06;101189.38;;;5.21;46.83
16331;BME280;8275;48.206;16.340;2022-12-18T09:26:35;101186.13;;;5.26;47.08
16331;BME280;8275;48.206;16.340;2022-12-18T09:29:05;101190.19;;;5.30;46.48
16331;BME280;8275;48.206;16.340;2022-12-18T09:31:35;101185.94;;;5.35;46.83
16331;BME280;8275;48.206;16.340;2022-12-18T09:34:03;101181.50;;;5.42;46.79
16331;BME280;8275;48.206;16.340;2022-12-18T09:36:32;101182.81;;;5.46;46.38
16331;BME280;8275;48.206;16.340;2022-12-18T09:39:00;101179.41;;;5.52;46.38
16331;BME280;8275;48.206;16.340;2022-12-18T09:41:42;101174.81;;;5.53;46.24
16331;BME280;8275;48.206;16.340;2022-12-18T09:44:20;101182.81;;;5.54;45.83
16331;BME280;8275;48.206;16.340;2022-12-18T09:47:01;101186.19;;;5.56;46.53
16331;BME280;8275;48.206;16.340;2022-12-18T09:49:34;101181.41;;;5.58;46.05
16331;BME280;8275;48.206;16.340;2022-12-18T09:52:11;101176.09;;;5.65;46.30
16331;BME280;8275;48.206;16.340;2022-12-18T09:54:46;101181.19;;;5.68;45.70
16331;BME280;8275;48.206;16.340;2022-12-18T09:57:20;101169.94;;;5.71;46.03
16331;BME280;8275;48.206;16.340;2022-12-18T09:59:54;101174.03;;;5.75;46.31
16331;BME280;8275;48.206;16.340;2022-12-18T10:02:26;101169.72;;;5.81;46.19
16331;BME280;8275;48.206;16.340;2022-12-18T10:05:05;101172.97;;;5.84;45.79
16331;BME280;8275;48.206;16.340;2022-12-18T10:07:55;101171.78;;;5.87;45.40
16331;BME280;8275;48.206;16.340;2022-12-18T10:10:38;101173.44;;;5.88;45.48
16331;BME280;8275;48.206;16.340;2022-12-18T10:13:21;101165.13;;;5.89;45.58
16331;BME280;8275;48.206;16.340;2022-12-18T10:16:06;101164.59;;;5.94;45.52
16331;BME280;8275;48.206;16.340;2022-12-18T10:18:57;101160.28;;;5.99;45.45
16331;BME280;8275;48.206;16.340;2022-12-18T10:21:36;101159.38;;;6.07;45.89
16331;BME280;8275;48.206;16.340;2022-12-18T10:24:16;101160.53;;;6.12;46.23
16331;BME280;8275;48.206;16.340;2022-12-18T10:26:49;101160.00;;;6.17;45.72
16331;BME280;8275;48.206;16.340;2022-12-18T10:29:21;101158.28;;;6.16;45.74
16331;BME280;8275;48.206;16.340;2022-12-18T10:31:50;101157.63;;;6.14;45.28
16331;BME280;8275;48.206;16.340;2022-12-18T10:34:18;101155.75;;;6.14;45.38
16331;BME280;8275;48.206;16.340;2022-12-18T10:36:48;101159.31;;;6.15;45.30
16331;BME280;8275;48.206;16.340;2022-12-18T10:39:19;101155.56;;;6.16;45.33
16331;BME280;8275;48.206;16.340;2022-12-18T10:41:49;101146.88;;;6.20;44.87
16331;BME280;8275;48.206;16.340;2022-12-18T10:44:19;101154.28;;;6.26;45.75
16331;BME280;8275;48.206;16.340;2022-12-18T10:46:53;101154.59;;;6.31;46.02
16331;BME280;8275;48.206;16.340;2022-12-18T10:49:26;101151.88;;;6.31;45.30
16331;BME280;8275;48.206;16.340;2022-12-18T10:52:07;101157.50;;;6.30;44.89
16331;BME280;8275;48.206;16.340;2022-12-18T10:54:46;101146.38;;;6.40;44.81
16331;BME280;8275;48.206;16.340;2022-12-18T10:57:31;101139.81;;;6.49;43.84
16331;BME280;8275;48.206;16.340;2022-12-18T11:00:28;101140.94;;;6.54;44.18
16331;BME280;8275;48.206;16.340;2022-12-18T11:02:58;101137.50;;;6.60;44.88
16331;BME280;8275;48.206;16.340;2022-12-18T11:05:30;101136.44;;;6.61;44.72
16331;BME280;8275;48.206;16.340;2022-12-18T11:08:00;101137.94;;;6.64;44.50
16331;BME280;8275;48.206;16.340;2022-12-18T11:10:32;101131.66;;;6.63;44.41
16331;BME280;8275;48.206;16.340;2022-12-18T11:13:12;101132.34;;;6.65;43.99
16331;BME280;8275;48.206;16.340;2022-12-18T11:15:45;101128.38;;;6.68;43.83
16331;BME280;8275;48.206;16.340;2022-12-18T11:18:24;101126.91;;;6.65;44.30
16331;BME280;8275;48.206;16.340;2022-12-18T11:20:55;101132.41;;;6.57;44.06
16331;BME280;8275;48.206;16.340;2022-12-18T11:23:26;101131.66;;;6.49;44.65
16331;BME280;8275;48.206;16.340;2022-12-18T11:25:58;101138.50;;;6.45;43.99
16331;BME280;8275;48.206;16.340;2022-12-18T11:28:37;101138.56;;;6.36;43.99
16331;BME280;8275;48.206;16.340;2022-12-18T11:31:27;101142.19;;;6.29;44.56
16331;BME280;8275;48.206;16.340;2022-12-18T11:34:07;101137.78;;;6.28;44.31
16331;BME280;8275;48.206;16.340;2022-12-18T11:36:55;101129.06;;;6.32;44.68
16331;BME280;8275;48.206;16.340;2022-12-18T11:39:34;101121.38;;;6.36;44.01
16331;BME280;8275;48.206;16.340;2022-12-18T11:42:12;101129.53;;;6.36;44.23
16331;BME280;8275;48.206;16.340;2022-12-18T11:44:48;101130.41;;;6.36;43.94
16331;BME280;8275;48.206;16.340;2022-12-18T11:47:26;101122.41;;;6.35;43.61
16331;BME280;8275;48.206;16.340;2022-12-18T11:50:01;101113.03;;;6.38;44.57
16331;BME280;8275;48.206;16.340;2022-12-18T11:52:36;101112.09;;;6.45;43.63
16331;BME280;8275;48.206;16.340;2022-12-18T11:55:12;101110.53;;;6.51;43.66
16331;BME280;8275;48.206;16.340;2022-12-18T11:57:50;101098.88;;;6.57;44.29
16331;BME280;8275;48.206;16.340;2022-12-18T12:00:22;101104.97;;;6.59;43.63
16331;BME280;8275;48.206;16.340;2022-12-18T12:03:38;101103.47;;;6.56;44.43
16331;BME280;8275;48.206;16.340;2022-12-18T12:06:17;101107.25;;;6.55;43.81
16331;BME280;8275;48.206;16.340;2022-12-18T12:09:01;101108.25;;;6.54;43.81
16331;BME280;8275;48.206;16.340;2022-12-18T12:11:40;101117.00;;;6.50;44.09
16331;BME280;8275;48.206;16.340;2022-12-18T12:14:32;101116.44;;;6.40;43.82
16331;BME280;8275;48.206;16.340;2022-12-18T12:17:11;101100.00;;;6.33;44.46
16331;BME280;8275;48.206;16.340;2022-12-18T12:19:50;101107.84;;;6.28;43.99
16331;BME280;8275;48.206;16.340;2022-12-18T12:22:34;101107.84;;;6.28;43.83
16331;BME280;8275;48.206;16.340;2022-12-18T12:25:28;101107.97;;;6.34;43.70
16331;BME280;8275;48.206;16.340;2022-12-18T12:28:13;101110.59;;;6.43;44.36
16331;BME280;8275;48.206;16.340;2022-12-18T12:30:55;101109.47;;;6.52;43.72
16331;BME280;8275;48.206;16.340;2022-12-18T12:33:39;101093.28;;;6.58;43.64
16331;BME280;8275;48.206;16.340;2022-12-18T12:36:18;101101.91;;;6.62;43.29
16331;BME280;8275;48.206;16.340;2022-12-18T12:38:56;101093.72;;;6.62;43.53
16331;BME280;8275;48.206;16.340;2022-12-18T12:41:32;101082.84;;;6.62;43.57
16331;BME280;8275;48.206;16.340;2022-12-18T12:44:24;101088.66;;;6.59;43.51
16331;BME280;8275;48.206;16.340;2022-12-18T12:46:59;101077.94;;;6.57;43.36
16331;BME280;8275;48.206;16.340;2022-12-18T12:49:33;101084.63;;;6.55;43.59
16331;BME280;8275;48.206;16.340;2022-12-18T12:52:14;101091.09;;;6.54;43.25
16331;BME280;8275;48.206;16.340;2022-12-18T12:54:45;101088.25;;;6.47;43.53
16331;BME280;8275;48.206;16.340;2022-12-18T12:57:19;101097.84;;;6.43;43.37
16331;BME280;8275;48.206;16.340;2022-12-18T12:59:57;101096.72;;;6.38;43.35
16331;BME280;8275;48.206;16.340;2022-12-18T13:02:34;101098.59;;;6.37;43.33
16331;BME280;8275;48.206;16.340;2022-12-18T13:05:15;101099.59;;;6.36;42.93
16331;BME280;8275;48.206;16.340;2022-12-18T13:07:52;101116.97;;;6.35;43.70
16331;BME280;8275;48.206;16.340;2022-12-18T13:10:33;101108.31;;;6.31;43.63
16331;BME280;8275;48.206;16.340;2022-12-18T13:13:06;101105.13;;;6.28;43.73
16331;BME280;8275;48.206;16.340;2022-12-18T13:15:43;101108.56;;;6.22;43.33
16331;BME280;8275;48.206;16.340;2022-12-18T13:18:17;101118.13;;;6.18;43.62
16331;BME280;8275;48.206;16.340;2022-12-18T13:20:51;101118.50;;;6.15;43.25
16331;BME280;8275;48.206;16.340;2022-12-18T13:23:35;101122.63;;;6.11;43.37
16331;BME280;8275;48.206;16.340;2022-12-18T13:26:34;101122.16;;;6.07;43.45
16331;BME280;8275;48.206;16.340;2022-12-18T13:29:03;101122.50;;;6.04;43.13